sensor_id;sensor_type;location;lat;lon;timestamp;pressure;altitude;pressure_sealevel;temperature;humidity
25638;BME280;13496;51.040;13.680;2023-02-11T00:02:36;101387.03;;;15.14;53.59
25638;BME280;13496;51.040;13.680;2023-02-11T00:07:37;101380.13;;;15.13;54.05
25638;BME280;13496;51.040;13.680;2023-02-11T00:12:39;101371.59;;;15.11;53.97
25638;BME280;13496;51.040;13.680;2023-02-11T00:17:41;101374.91;;;15.13;53.57
25638;BME280;13496;51.040;13.680;2023-02-11T00:22:42;101362.78;;;15.12;53.66
25638;BME280;13496;51.040;13.680;2023-02-11T00:27:44;101353.44;;;15.09;54.19
25638;BME280;13496;51.040;13.680;2023-02-11T00:32:47;101342.84;;;15.11;53.51
25638;BME280;13496;51.040;13.680;2023-02-11T00:37:52;101337.63;;;15.11;53.92
25638;BME280;13496;51.040;13.680;2023-02-11T00:42:53;101323.81;;;15.09;53.36
25638;BME280;13496;51.040;13.680;2023-02-11T00:47:55;101314.47;;;15.06;54.01
25638;BME280;13496;51.040;13.680;2023-02-11T00:52:57;101297.84;;;15.07;53.56
25638;BME280;13496;51.040;13.680;2023-02-11T00:57:59;101282.88;;;15.09;53.93
25638;BME280;13496;51.040;13.680;2023-02-11T01:03:00;101268.25;;;15.07;53.86
25638;BME280;13496;51.040;13.680;2023-02-11T01:08:02;101249.25;;;15.05;53.92
25638;BME280;13496;51.040;13.680;2023-02-11T01:13:04;101239.75;;;15.04;53.55
25638;BME280;13496;51.040;13.680;2023-02-11T01:18:06;101256.00;;;15.07;53.76
25638;BME280;13496;51.040;13.680;2023-02-11T01:23:08;101266.72;;;15.04;53.78
25638;BME280;13496;51.040;13.680;2023-02-11T01:28:29;101277.16;;;15.04;53.57
25638;BME280;13496;51.040;13.680;2023-02-11T01:33:34;101275.63;;;15.01;53.98
25638;BME280;13496;51.040;13.680;2023-02-11T01:38:36;101278.97;;;15.04;53.77
25638;BME280;13496;51.040;13.680;2023-02-11T01:43:42;101253.78;;;15.03;53.99
25638;BME280;13496;51.040;13.680;2023-02-11T01:48:50;101255.44;;;15.04;53.90
25638;BME280;13496;51.040;13.680;2023-02-11T01:53:56;101254.03;;;14.99;53.16
25638;BME280;13496;51.040;13.680;2023-02-11T01:59:21;101240.16;;;14.99;53.11
25638;BME280;13496;51.040;13.680;2023-02-11T02:04:26;101231.34;;;15.00;53.35
25638;BME280;13496;51.040;13.680;2023-02-11T02:09:37;101229.78;;;14.97;53.32
25638;BME280;13496;51.040;13.680;2023-02-11T02:14:41;101240.16;;;14.99;53.50
25638;BME280;13496;51.040;13.680;2023-02-11T02:36:18;101232.41;;;14.97;53.49
25638;BME280;13496;51.040;13.680;2023-02-11T02:41:27;101216.03;;;14.95;53.33
25638;BME280;13496;51.040;13.680;2023-02-11T02:46:32;101214.25;;;14.96;53.80
25638;BME280;13496;51.040;13.680;2023-02-11T02:56:54;101207.25;;;14.96;53.20
25638;BME280;13496;51.040;13.680;2023-02-11T03:02:10;101211.66;;;14.96;53.95
25638;BME280;13496;51.040;13.680;2023-02-11T03:12:29;101218.53;;;14.97;53.42
25638;BME280;13496;51.040;13.680;2023-02-11T03:17:34;101214.25;;;14.96;53.19
25638;BME280;13496;51.040;13.680;2023-02-11T03:22:44;101226.50;;;14.95;53.15
25638;BME280;13496;51.040;13.680;2023-02-11T03:27:56;101214.25;;;14.96;53.25
25638;BME280;13496;51.040;13.680;2023-02-11T03:33:21;101183.03;;;14.94;53.02
25638;BME280;13496;51.040;13.680;2023-02-11T03:38:29;101169.25;;;14.92;53.48
25638;BME280;13496;51.040;13.680;2023-02-11T03:43:36;101170.22;;;14.91;53.39
25638;BME280;13496;51.040;13.680;2023-02-11T03:48:43;101164.03;;;14.92;53.49
25638;BME280;13496;51.040;13.680;2023-02-11T03:53:48;101164.03;;;14.92;53.18
25638;BME280;13496;51.040;13.680;2023-02-11T03:58:51;101160.72;;;14.90;53.42
25638;BME280;13496;51.040;13.680;2023-02-11T04:03:53;101150.97;;;14.92;53.15
25638;BME280;13496;51.040;13.680;2023-02-11T04:08:54;101145.88;;;14.91;53.13
25638;BME280;13496;51.040;13.680;2023-02-11T04:13:56;101138.88;;;14.91;53.26
25638;BME280;13496;51.040;13.680;2023-02-11T04:18:58;101139.69;;;14.92;53.40
25638;BME280;13496;51.040;13.680;2023-02-11T04:23:59;101151.22;;;14.89;53.49
25638;BME280;13496;51.040;13.680;2023-02-11T04:29:01;101152.88;;;14.90;52.84
25638;BME280;13496;51.040;13.680;2023-02-11T04:34:03;101162.38;;;14.91;53.03
25638;BME280;13496;51.040;13.680;2023-02-11T04:39:04;101149.31;;;14.91;53.40
25638;BME280;13496;51.040;13.680;2023-02-11T04:44:06;101165.94;;;14.90;52.59
25638;BME280;13496;51.040;13.680;2023-02-11T04:49:11;101173.09;;;14.88;52.59
25638;BME280;13496;51.040;13.680;2023-02-11T04:54:14;101172.13;;;14.89;53.03
25638;BME280;13496;51.040;13.680;2023-02-11T04:59:16;101166.91;;;14.89;52.89
25638;BME280;13496;51.040;13.680;2023-02-11T05:04:17;101165.38;;;14.87;53.09
25638;BME280;13496;51.040;13.680;2023-02-11T05:09:19;101167.88;;;14.88;52.54
25638;BME280;13496;51.040;13.680;2023-02-11T05:14:21;101168.94;;;14.86;53.01
25638;BME280;13496;51.040;13.680;2023-02-11T05:19:22;101165.38;;;14.87;53.09
25638;BME280;13496;51.040;13.680;2023-02-11T05:24:24;101166.22;;;14.87;52.41
25638;BME280;13496;51.040;13.680;2023-02-11T05:29:26;101163.59;;;14.87;52.76
25638;BME280;13496;51.040;13.680;2023-02-11T05:34:28;101156.69;;;14.86;52.82
25638;BME280;13496;51.040;13.680;2023-02-11T05:39:29;101148.03;;;14.86;52.54
25638;BME280;13496;51.040;13.680;2023-02-11T05:44:31;101143.63;;;14.86;52.48
25638;BME280;13496;51.040;13.680;2023-02-11T05:49:33;101147.22;;;14.85;52.31
25638;BME280;13496;51.040;13.680;2023-02-11T05:54:35;101140.09;;;14.87;52.30
25638;BME280;13496;51.040;13.680;2023-02-11T05:59:37;101137.72;;;14.84;52.84
25638;BME280;13496;51.040;13.680;2023-02-11T06:04:39;101131.78;;;14.82;52.60
25638;BME280;13496;51.040;13.680;2023-02-11T06:09:41;101132.50;;;14.84;52.25
25638;BME280;13496;51.040;13.680;2023-02-11T06:14:43;101127.38;;;14.83;52.77
25638;BME280;13496;51.040;13.680;2023-02-11T06:19:45;101130.72;;;14.85;52.86
25638;BME280;13496;51.040;13.680;2023-02-11T06:24:46;101123.84;;;14.84;52.42
25638;BME280;13496;51.040;13.680;2023-02-11T06:29:48;101111.72;;;14.83;52.71
25638;BME280;13496;51.040;13.680;2023-02-11T06:34:50;101106.38;;;14.84;52.22
25638;BME280;13496;51.040;13.680;2023-02-11T06:39:51;101105.56;;;14.84;52.36
25638;BME280;13496;51.040;13.680;2023-02-11T06:44:53;101093.56;;;14.81;52.24
25638;BME280;13496;51.040;13.680;2023-02-11T06:49:55;101095.47;;;14.79;52.09
25638;BME280;13496;51.040;13.680;2023-02-11T06:54:56;101108.97;;;14.84;52.30
25638;BME280;13496;51.040;13.680;2023-02-11T06:59:58;101095.34;;;14.81;52.21
25638;BME280;13496;51.040;13.680;2023-02-11T07:05:00;101082.84;;;14.84;52.85
25638;BME280;13496;51.040;13.680;2023-02-11T07:10:02;101084.66;;;14.84;52.01
25638;BME280;13496;51.040;13.680;2023-02-11T07:15:04;101096.88;;;14.83;52.10
25638;BME280;13496;51.040;13.680;2023-02-11T07:20:06;101105.41;;;14.85;52.41
25638;BME280;13496;51.040;13.680;2023-02-11T07:25:09;101108.97;;;14.84;52.65
25638;BME280;13496;51.040;13.680;2023-02-11T07:30:11;101105.16;;;14.88;52.61
25638;BME280;13496;51.040;13.680;2023-02-11T07:35:13;101113.97;;;14.87;52.51
25638;BME280;13496;51.040;13.680;2023-02-11T07:40:15;101113.81;;;14.89;52.03
25638;BME280;13496;51.040;13.680;2023-02-11T07:45:17;101110.22;;;14.90;52.78
25638;BME280;13496;51.040;13.680;2023-02-11T07:50:18;101110.13;;;14.91;51.92
25638;BME280;13496;51.040;13.680;2023-02-11T07:55:20;101105.72;;;14.92;52.63
25638;BME280;13496;51.040;13.680;2023-02-11T08:00:22;101113.41;;;14.93;52.82
25638;BME280;13496;51.040;13.680;2023-02-11T08:05:23;101092.25;;;14.96;52.42
25638;BME280;13496;51.040;13.680;2023-02-11T08:10:25;101101.06;;;14.95;52.06
25638;BME280;13496;51.040;13.680;2023-02-11T08:15:27;101101.47;;;15.00;51.96
25638;BME280;13496;51.040;13.680;2023-02-11T08:20:28;101109.91;;;15.04;52.12
25638;BME280;13496;51.040;13.680;2023-02-11T08:25:31;101102.19;;;15.03;51.93
25638;BME280;13496;51.040;13.680;2023-02-11T08:30:32;101110.28;;;14.99;51.38
25638;BME280;13496;51.040;13.680;2023-02-11T08:35:34;101101.47;;;15.00;51.91
25638;BME280;13496;51.040;13.680;2023-02-11T08:40:37;101100.81;;;14.98;51.52
25638;BME280;13496;51.040;13.680;2023-02-11T08:45:39;101098.03;;;15.00;52.05
25638;BME280;13496;51.040;13.680;2023-02-11T08:50:40;101096.81;;;15.04;52.18
25638;BME280;13496;51.040;13.680;2023-02-11T08:55:53;101093.53;;;15.02;51.86
25638;BME280;13496;51.040;13.680;2023-02-11T09:00:55;101099.69;;;15.01;52.42
25638;BME280;13496;51.040;13.680;2023-02-11T09:05:56;101096.56;;;15.07;51.88
25638;BME280;13496;51.040;13.680;2023-02-11T09:10:58;101115.94;;;15.05;51.88
25638;BME280;13496;51.040;13.680;2023-02-11T09:16:01;101104.25;;;15.09;52.17
25638;BME280;13496;51.040;13.680;2023-02-11T09:21:04;101113.06;;;15.08;52.59
25638;BME280;13496;51.040;13.680;2023-02-11T09:26:08;101120.09;;;15.07;51.92
25638;BME280;13496;51.040;13.680;2023-02-11T09:31:13;101129.00;;;15.05;51.80
25638;BME280;13496;51.040;13.680;2023-02-11T09:36:18;101139.72;;;15.01;51.88
25638;BME280;13496;51.040;13.680;2023-02-11T09:46:26;101144.69;;;15.05;52.16
25638;BME280;13496;51.040;13.680;2023-02-11T09:51:41;101130.53;;;15.07;52.17
25638;BME280;13496;51.040;13.680;2023-02-11T09:56:45;101125.31;;;15.07;52.36
25638;BME280;13496;51.040;13.680;2023-02-11T10:01:52;101129.84;;;15.05;52.58
25638;BME280;13496;51.040;13.680;2023-02-11T10:06:59;101122.44;;;15.10;52.52
25638;BME280;13496;51.040;13.680;2023-02-11T10:12:27;101138.38;;;15.07;52.35
25638;BME280;13496;51.040;13.680;2023-02-11T10:18:13;101130.16;;;15.12;52.15
25638;BME280;13496;51.040;13.680;2023-02-11T10:23:22;101118.03;;;15.11;51.90
25638;BME280;13496;51.040;13.680;2023-02-11T10:28:33;101128.75;;;15.08;51.98
25638;BME280;13496;51.040;13.680;2023-02-11T10:34:12;101119.94;;;15.09;51.67
25638;BME280;13496;51.040;13.680;2023-02-11T10:39:16;101116.81;;;15.15;51.92
25638;BME280;13496;51.040;13.680;2023-02-11T10:44:37;101136.66;;;15.17;51.72
25638;BME280;13496;51.040;13.680;2023-02-11T10:49:44;101117.53;;;15.17;51.50
25638;BME280;13496;51.040;13.680;2023-02-11T11:00:39;101105.28;;;15.17;51.81
25638;BME280;13496;51.040;13.680;2023-02-11T11:05:47;101101.13;;;15.15;51.49
25638;BME280;13496;51.040;13.680;2023-02-11T11:16:10;101114.50;;;15.21;51.35
25638;BME280;13496;51.040;13.680;2023-02-11T11:21:22;101108.47;;;15.21;51.91
25638;BME280;13496;51.040;13.680;2023-02-11T11:26:28;101111.31;;;15.18;51.96
25638;BME280;13496;51.040;13.680;2023-02-11T11:31:49;101105.97;;;15.19;51.80
25638;BME280;13496;51.040;13.680;2023-02-11T11:36:51;101104.44;;;15.17;50.29
25638;BME280;13496;51.040;13.680;2023-02-11T11:42:04;101092.88;;;15.19;51.34
25638;BME280;13496;51.040;13.680;2023-02-11T11:47:47;101094.16;;;15.25;51.73
25638;BME280;13496;51.040;13.680;2023-02-11T11:57:51;101112.00;;;15.20;49.73
25638;BME280;13496;51.040;13.680;2023-02-11T12:03:08;101124.16;;;15.21;51.83
25638;BME280;13496;51.040;13.680;2023-02-11T12:08:39;101134.47;;;15.22;51.89
25638;BME280;13496;51.040;13.680;2023-02-11T12:14:03;101129.38;;;15.21;51.46
25638;BME280;13496;51.040;13.680;2023-02-11T12:30:09;101126.75;;;15.21;51.74
25638;BME280;13496;51.040;13.680;2023-02-11T12:35:22;101131.16;;;15.20;51.77
25638;BME280;13496;51.040;13.680;2023-02-11T12:40:33;101139.94;;;15.19;51.98
25638;BME280;13496;51.040;13.680;2023-02-11T12:46:03;101137.31;;;15.19;51.51
25638;BME280;13496;51.040;13.680;2023-02-11T12:51:26;101126.75;;;15.21;51.82
25638;BME280;13496;51.040;13.680;2023-02-11T12:56:41;101124.50;;;15.16;51.97
25638;BME280;13496;51.040;13.680;2023-02-11T13:01:46;101123.44;;;15.19;51.52
25638;BME280;13496;51.040;13.680;2023-02-11T13:06:58;101117.63;;;15.15;52.17
25638;BME280;13496;51.040;13.680;2023-02-11T13:12:04;101108.97;;;15.15;51.59
25638;BME280;13496;51.040;13.680;2023-02-11T13:17:57;101099.66;;;15.22;51.65
25638;BME280;13496;51.040;13.680;2023-02-11T13:23:03;101087.53;;;15.21;51.84
25638;BME280;13496;51.040;13.680;2023-02-11T13:28:17;101073.91;;;15.17;52.25
25638;BME280;13496;51.040;13.680;2023-02-11T13:33:32;101072.78;;;15.20;51.33
25638;BME280;13496;51.040;13.680;2023-02-11T13:38:34;101078.03;;;15.20;51.64
25638;BME280;13496;51.040;13.680;2023-02-11T13:43:36;101087.53;;;15.21;52.02
25638;BME280;13496;51.040;13.680;2023-02-11T13:48:47;101077.75;;;15.23;51.95
25638;BME280;13496;51.040;13.680;2023-02-11T13:53:53;101077.91;;;15.21;51.70
25638;BME280;13496;51.040;13.680;2023-02-11T13:58:57;101078.16;;;15.18;51.60
25638;BME280;13496;51.040;13.680;2023-02-11T14:04:22;101071.97;;;15.19;50.94
25638;BME280;13496;51.040;13.680;2023-02-11T14:09:43;101080.63;;;15.20;52.02
25638;BME280;13496;51.040;13.680;2023-02-11T14:15:18;101083.53;;;15.17;51.64
25638;BME280;13496;51.040;13.680;2023-02-11T14:20:34;101104.16;;;15.20;50.90
25638;BME280;13496;51.040;13.680;2023-02-11T14:25:37;101111.31;;;15.18;51.53
25638;BME280;13496;51.040;13.680;2023-02-11T14:30:45;101112.97;;;15.19;51.35
25638;BME280;13496;51.040;13.680;2023-02-11T14:36:01;101108.56;;;15.19;51.54
25638;BME280;13496;51.040;13.680;2023-02-11T14:41:22;101108.81;;;15.16;51.24
25638;BME280;13496;51.040;13.680;2023-02-11T14:46:25;101109.69;;;15.17;51.20
25638;BME280;13496;51.040;13.680;2023-02-11T14:51:33;101100.31;;;15.14;51.19
25638;BME280;13496;51.040;13.680;2023-02-11T14:56:36;101093.28;;;15.15;51.80
25638;BME280;13496;51.040;13.680;2023-02-11T15:01:40;101090.69;;;15.15;51.05
25638;BME280;13496;51.040;13.680;2023-02-11T15:06:46;101096.06;;;15.13;51.93
25638;BME280;13496;51.040;13.680;2023-02-11T15:11:50;101085.72;;;15.12;51.25
25638;BME280;13496;51.040;13.680;2023-02-11T15:16:54;101111.84;;;15.12;51.47
25638;BME280;13496;51.040;13.680;2023-02-11T15:21:58;101104.00;;;15.12;51.20
25638;BME280;13496;51.040;13.680;2023-02-11T15:32:03;101108.56;;;15.10;51.91
25638;BME280;13496;51.040;13.680;2023-02-11T15:37:08;101109.38;;;15.10;51.54
25638;BME280;13496;51.040;13.680;2023-02-11T15:42:27;101098.09;;;15.10;51.31
25638;BME280;13496;51.040;13.680;2023-02-11T15:47:29;101100.97;;;15.07;51.36
25638;BME280;13496;51.040;13.680;2023-02-11T15:52:31;101105.22;;;15.08;51.19
25638;BME280;13496;51.040;13.680;2023-02-11T15:57:33;101107.16;;;15.06;51.82
25638;BME280;13496;51.040;13.680;2023-02-11T16:02:35;101096.72;;;15.06;51.94
25638;BME280;13496;51.040;13.680;2023-02-11T16:07:47;101114.28;;;15.04;51.79
25638;BME280;13496;51.040;13.680;2023-02-11T16:18:36;101134.38;;;15.03;50.92
25638;BME280;13496;51.040;13.680;2023-02-11T16:23:39;101138.78;;;15.03;51.25
25638;BME280;13496;51.040;13.680;2023-02-11T16:28:44;101145.91;;;15.00;50.96
25638;BME280;13496;51.040;13.680;2023-02-11T16:33:46;101155.41;;;15.01;51.64
25638;BME280;13496;51.040;13.680;2023-02-11T16:38:47;101151.13;;;15.00;51.11
25638;BME280;13496;51.040;13.680;2023-02-11T16:43:49;101161.59;;;15.00;51.23
25638;BME280;13496;51.040;13.680;2023-02-11T16:48:51;101162.56;;;14.99;51.08
25638;BME280;13496;51.040;13.680;2023-02-11T16:53:52;101154.84;;;14.98;51.61
25638;BME280;13496;51.040;13.680;2023-02-11T16:58:54;101159.13;;;14.99;51.28
25638;BME280;13496;51.040;13.680;2023-02-11T17:03:56;101163.25;;;15.01;50.88
25638;BME280;13496;51.040;13.680;2023-02-11T17:08:57;101160.91;;;14.98;51.98
25638;BME280;13496;51.040;13.680;2023-02-11T17:13:59;101165.44;;;14.96;52.10
25638;BME280;13496;51.040;13.680;2023-02-11T17:19:01;101164.34;;;14.99;51.77
25638;BME280;13496;51.040;13.680;2023-02-11T17:24:02;101172.31;;;14.97;51.54
25638;BME280;13496;51.040;13.680;2023-02-11T17:29:06;101162.00;;;14.96;51.54
25638;BME280;13496;51.040;13.680;2023-02-11T17:34:08;101184.69;;;14.95;51.70
25638;BME280;13496;51.040;13.680;2023-02-11T17:39:10;101194.31;;;14.95;51.80
25638;BME280;13496;51.040;13.680;2023-02-11T17:44:11;101185.50;;;14.96;51.57
25638;BME280;13496;51.040;13.680;2023-02-11T17:49:14;101184.69;;;14.95;51.63
25638;BME280;13496;51.040;13.680;2023-02-11T17:54:17;101189.91;;;14.95;51.53
25638;BME280;13496;51.040;13.680;2023-02-11T17:59:20;101196.09;;;14.94;51.66
25638;BME280;13496;51.040;13.680;2023-02-11T18:04:21;101201.44;;;14.93;51.86
25638;BME280;13496;51.040;13.680;2023-02-11T18:09:24;101212.72;;;14.93;51.45
25638;BME280;13496;51.040;13.680;2023-02-11T18:14:26;101217.00;;;14.94;51.32
25638;BME280;13496;51.040;13.680;2023-02-11T18:19:28;101229.38;;;14.92;51.60
25638;BME280;13496;51.040;13.680;2023-02-11T18:24:35;101233.88;;;14.90;51.19
25638;BME280;13496;51.040;13.680;2023-02-11T18:29:37;101238.84;;;14.93;51.63
25638;BME280;13496;51.040;13.680;2023-02-11T18:34:39;101246.00;;;14.91;51.13
25638;BME280;13496;51.040;13.680;2023-02-11T18:39:42;101246.94;;;14.90;51.83
25638;BME280;13496;51.040;13.680;2023-02-11T18:44:44;101257.41;;;14.90;51.40
25638;BME280;13496;51.040;13.680;2023-02-11T18:49:47;101260.00;;;14.90;51.62
25638;BME280;13496;51.040;13.680;2023-02-11T18:54:50;101274.03;;;14.89;50.89
25638;BME280;13496;51.040;13.680;2023-02-11T18:59:52;101288.06;;;14.88;50.88
25638;BME280;13496;51.040;13.680;2023-02-11T19:04:54;101299.34;;;14.89;50.83
25638;BME280;13496;51.040;13.680;2023-02-11T19:09:55;101298.75;;;14.85;51.46
25638;BME280;13496;51.040;13.680;2023-02-11T19:14:57;101311.81;;;14.85;51.50
25638;BME280;13496;51.040;13.680;2023-02-11T19:20:00;101305.91;;;14.83;50.94
25638;BME280;13496;51.040;13.680;2023-02-11T19:25:02;101332.72;;;14.85;51.06
25638;BME280;13496;51.040;13.680;2023-02-11T19:30:05;101336.16;;;14.86;51.58
25638;BME280;13496;51.040;13.680;2023-02-11T19:35:06;101336.16;;;14.86;51.69
25638;BME280;13496;51.040;13.680;2023-02-11T19:40:09;101347.44;;;14.86;51.57
25638;BME280;13496;51.040;13.680;2023-02-11T19:45:11;101343.19;;;14.85;51.41
25638;BME280;13496;51.040;13.680;2023-02-11T19:50:13;101351.03;;;14.85;51.33
25638;BME280;13496;51.040;13.680;2023-02-11T19:55:14;101345.78;;;14.85;51.10
25638;BME280;13496;51.040;13.680;2023-02-11T20:00:16;101354.47;;;14.86;51.17
25638;BME280;13496;51.040;13.680;2023-02-11T20:05:18;101355.44;;;14.85;51.18
25638;BME280;13496;51.040;13.680;2023-02-11T20:10:22;101372.88;;;14.84;51.57
25638;BME280;13496;51.040;13.680;2023-02-11T20:15:23;101380.72;;;14.84;51.60
25638;BME280;13496;51.040;13.680;2023-02-11T20:20:25;101394.75;;;14.83;51.63
25638;BME280;13496;51.040;13.680;2023-02-11T20:25:27;101400.91;;;14.82;51.64
25638;BME280;13496;51.040;13.680;2023-02-11T20:30:28;101393.78;;;14.84;52.01
25638;BME280;13496;51.040;13.680;2023-02-11T20:35:30;101392.16;;;14.83;51.77
25638;BME280;13496;51.040;13.680;2023-02-11T20:40:32;101390.47;;;14.82;51.81
25638;BME280;13496;51.040;13.680;2023-02-11T20:45:34;101374.69;;;14.84;51.63
25638;BME280;13496;51.040;13.680;2023-02-11T20:50:35;101373.84;;;14.83;51.64
25638;BME280;13496;51.040;13.680;2023-02-11T20:55:38;101367.78;;;14.83;51.49
25638;BME280;13496;51.040;13.680;2023-02-11T21:00:39;101353.88;;;14.82;51.40
25638;BME280;13496;51.040;13.680;2023-02-11T21:05:41;101362.69;;;14.81;51.20
25638;BME280;13496;51.040;13.680;2023-02-11T21:10:43;101368.03;;;14.80;51.18
25638;BME280;13496;51.040;13.680;2023-02-11T21:15:44;101375.03;;;14.79;51.19
25638;BME280;13496;51.040;13.680;2023-02-11T21:20:46;101393.31;;;14.79;51.60
25638;BME280;13496;51.040;13.680;2023-02-11T21:25:48;101384.78;;;14.77;51.35
25638;BME280;13496;51.040;13.680;2023-02-11T21:30:49;101386.44;;;14.78;51.21
25638;BME280;13496;51.040;13.680;2023-02-11T21:35:56;101404.63;;;14.80;51.02
25638;BME280;13496;51.040;13.680;2023-02-11T21:41:04;101410.19;;;14.75;50.53
25638;BME280;13496;51.040;13.680;2023-02-11T21:46:12;101417.34;;;14.73;51.06
25638;BME280;13496;51.040;13.680;2023-02-11T21:51:19;101425.75;;;14.76;51.36
25638;BME280;13496;51.040;13.680;2023-02-11T21:56:21;101432.78;;;14.76;50.91
25638;BME280;13496;51.040;13.680;2023-02-11T22:01:29;101425.63;;;14.78;51.55
25638;BME280;13496;51.040;13.680;2023-02-11T22:06:33;101442.97;;;14.79;51.45
25638;BME280;13496;51.040;13.680;2023-02-11T22:11:35;101447.50;;;14.77;50.91
25638;BME280;13496;51.040;13.680;2023-02-11T22:16:37;101449.28;;;14.76;51.07
25638;BME280;13496;51.040;13.680;2023-02-11T22:21:39;101450.22;;;14.75;51.28
25638;BME280;13496;51.040;13.680;2023-02-11T22:26:41;101450.09;;;14.77;51.20
25638;BME280;13496;51.040;13.680;2023-02-11T22:31:43;101462.56;;;14.73;51.40
25638;BME280;13496;51.040;13.680;2023-02-11T22:36:44;101458.75;;;14.77;51.27
25638;BME280;13496;51.040;13.680;2023-02-11T22:41:48;101479.53;;;14.79;51.31
25638;BME280;13496;51.040;13.680;2023-02-11T22:46:51;101477.19;;;14.76;51.07
25638;BME280;13496;51.040;13.680;2023-02-11T22:51:52;101474.69;;;14.74;51.23
25638;BME280;13496;51.040;13.680;2023-02-11T22:56:54;101493.56;;;14.78;51.14
25638;BME280;13496;51.040;13.680;2023-02-11T23:01:56;101501.63;;;14.75;51.53
25638;BME280;13496;51.040;13.680;2023-02-11T23:06:57;101504.16;;;14.76;51.21
25638;BME280;13496;51.040;13.680;2023-02-11T23:11:59;101505.19;;;14.74;51.54
25638;BME280;13496;51.040;13.680;2023-02-11T23:17:01;101505.34;;;14.72;51.23
25638;BME280;13496;51.040;13.680;2023-02-11T23:22:02;101512.22;;;14.73;51.51
25638;BME280;13496;51.040;13.680;2023-02-11T23:27:04;101508.78;;;14.73;51.04
25638;BME280;13496;51.040;13.680;2023-02-11T23:32:05;101508.78;;;14.73;50.56
25638;BME280;13496;51.040;13.680;2023-02-11T23:37:07;101520.06;;;14.73;51.20
25638;BME280;13496;51.040;13.680;2023-02-11T23:42:09;101525.28;;;14.73;51.31
25638;BME280;13496;51.040;13.680;2023-02-11T23:47:12;101524.44;;;14.73;51.28
25638;BME280;13496;51.040;13.680;2023-02-11T23:52:13;101520.16;;;14.72;50.96
25638;BME280;13496;51.040;13.680;2023-02-11T23:57:15;101520.16;;;14.72;51.19
